OITK 
Khoy Airport
Khoy, Iran 
ICAOIATAStatus
OITKKHYOperational
LatitudeLongitude
38° 25' 39" N44° 58' 24" E
38.42750244.973598
Local Time (DST+5)UTC (GMT+4)
04-25-2014 07:57 am04-25-2014 03:27
Sunrise-SunsetLocalUTC
Begin Civil Twilight06:10 am01:40
Sunrise06:38 am02:08
Sunset08:17 pm15:47
End Civil Twilight08:45 pm16:15

Current Weather

METARObservedFlight Conditions

OITK 241000Z 05008KT 9999 FEW035 SCT200 20/M03 Q1014

Thu, Apr 24, 2014 @ 10:00 UTC(Z)

(17 Hours, 27 Minutes ago)

VFR

(Visual Flight Rules)

WindVisibilityCloudsConditions
050° at 8 knots (15 kph)
10 km or more
  • Few at 3,500' AGL
  • Scattered at 20,000' AGL
  • No significant weather
TemperaturesReadingsPrecipitation
Current Temp20°C (68°F)
Dewpoint-3°C (27°F)
Humidity21%
Altimeter29.94"Hg
Sea Level Pressure1014mb
Field Elevation3631.89'
None Recorded

Additional weather within a 92.6km radius of OITK

Location METAR
OITR

84.8km S (174°)

27 minutes ago
VFR VFR    MVFR MVFR    IFR IFR    LIFR LIFR    Unknown Unknown

Previous 24 hour Weather Graphs

  Loading...

CheckWX.com is intended as a tool to help pilots better visualize weather data.   It is not intended as a substitute for an official weather briefing obtained from a Flight Service Station.
CheckWX.com does not meet the FAA requirements for an official pre-flight weather briefing.   Therefore, it's important that pilots still call and obtain an official FSS pre-flight weather briefing.